Silica, Minnesota
Current Conditions -  °F | °C
As of 7:38 PM on Sunday 23 Nov 2014 (Local Time) from KHIB Reporting Station
Haze Haze  
Wind Chill: 31°   Ceiling: 1100
Heat Index: 35°   Visibility: 5mi
Dew Point: 32°   Wind: 5mph
Humidity: 89%   Direction: 310°NW
Pressure: 29.36"   Gusts: NA
Location:  47.4158°N, 93.0053°W
Report Text: KHIB 240138Z AUTO 31004KT 5SM BR BKN011 OVC070 02/00 A2936 RMK AO2 T00170000
Loading
Personal Weather Stations






























Interactive Weather Map New forecast layout! Learn more

10-Day Weather Forecast

Advertisements
Track Severe Weather on mobile